Terminal Aerodrome Forecast
Issued by NWS

Home | Current Version | Previous Version | Text Only | Print | Product List | Glossary On
Versions: 1 2 3 4 5 6 7 8 9 10 11 12 13 14 15 16 17 18 19
000
FTUS45 KBOU 242319 AAE
TAFAPA
TAF AMD
KAPA 242319Z 2423/2518 01008KT P6SM FEW070 BKN120
     FM250100 29010KT P6SM FEW080 SCT120
     FM250300 26009KT P6SM FEW220
     FM250700 19009KT P6SM SKC=

USA.gov is the U.S. government's official web portal to all federal, state and local government web resources and services.